Schneifelwetter: Wetterstation Hallschlag, 537 m . NN
Wetterdaten: Montag, 29.08.2011
Datum Zeit Temp. A. Feuchte A. Luftdruck Regen Wind Richtung Richtung Sonnenschein Helligkeit T Regen Taupunkt Windchill
29.08.2011 00:09 10,4 C 84 % 1016 hPa 0,0 l/m 14,0 km/h (3 Bft) W-SW22.5 250 0 min 0 lux 0 min 7,8 C 6,0 C
29.08.2011 00:24 10,2 C 84 % 1016 hPa 0,0 l/m 14,8 km/h (3 Bft) S-SW45 205 0 min 0 lux 0 min 7,6 C 5,5 C
29.08.2011 00:39 9,9 C 84 % 1016 hPa 0,0 l/m 5,6 km/h (1 Bft) W-SW 250 0 min 0 lux 0 min 7,3 C 9,9 C
29.08.2011 00:54 9,4 C 85 % 1016 hPa 0,0 l/m 0,0 km/h (0 Bft) W-SW 250 0 min 0 lux 0 min 7,0 C 9,4 C
29.08.2011 01:09 9,1 C 85 % 1016 hPa 0,0 l/m 0,8 km/h (0 Bft) W-SW 250 0 min 0 lux 0 min 6,7 C 9,1 C
29.08.2011 01:24 8,8 C 87 % 1016 hPa 0,0 l/m 10,5 km/h (2 Bft) W-SW 250 0 min 0 lux 0 min 6,8 C 6,0 C
29.08.2011 01:39 9,2 C 89 % 1016 hPa 0,0 l/m 14,0 km/h (3 Bft) W-SW45 240 0 min 0 lux 0 min 7,5 C 4,6 C
29.08.2011 01:54 9,6 C 89 % 1016 hPa 0,0 l/m 11,1 km/h (2 Bft) SW22.5 235 0 min 0 lux 0 min 7,9 C 6,5 C
29.08.2011 02:09 9,6 C 89 % 1016 hPa 0,0 l/m 16,5 km/h (3 Bft) S22.5 190 0 min 0 lux 0 min 7,9 C 4,0 C
29.08.2011 02:24 9,5 C 89 % 1015 hPa 0,0 l/m 17,0 km/h (3 Bft) S-SW45 200 0 min 0 lux 0 min 7,8 C 3,7 C
29.08.2011 02:39 9,2 C 88 % 1015 hPa 0,0 l/m 13,3 km/h (3 Bft) SW22.5 215 0 min 0 lux 0 min 7,3 C 4,9 C
29.08.2011 02:54 8,9 C 89 % 1015 hPa 0,0 l/m 8,0 km/h (2 Bft) SW22.5 230 0 min 0 lux 0 min 7,2 C 7,7 C
29.08.2011 03:09 8,2 C 89 % 1015 hPa 0,0 l/m 5,6 km/h (1 Bft) SW 230 0 min 0 lux 0 min 6,5 C 8,2 C
29.08.2011 03:24 7,9 C 89 % 1015 hPa 0,0 l/m 9,0 km/h (2 Bft) SW 225 0 min 0 lux 0 min 6,2 C 5,9 C
29.08.2011 03:39 7,8 C 91 % 1015 hPa 0,0 l/m 6,5 km/h (2 Bft) SW45 215 0 min 0 lux 0 min 6,4 C 7,7 C
29.08.2011 03:54 8,0 C 92 % 1015 hPa 0,0 l/m 10,8 km/h (2 Bft) SW45 230 0 min 0 lux 0 min 6,8 C 4,9 C
29.08.2011 04:09 8,4 C 92 % 1015 hPa 0,0 l/m 10,5 km/h (2 Bft) W-SW22.5 240 0 min 0 lux 0 min 7,2 C 5,5 C
29.08.2011 04:24 8,6 C 93 % 1015 hPa 0,0 l/m 11,8 km/h (2 Bft) SW22.5 235 0 min 0 lux 0 min 7,5 C 5,0 C
29.08.2011 04:39 9,0 C 93 % 1015 hPa 0,0 l/m 15,1 km/h (3 Bft) SW22.5 225 0 min 0 lux 0 min 7,9 C 3,9 C
29.08.2011 04:54 9,1 C 93 % 1015 hPa 0,0 l/m 12,4 km/h (3 Bft) W-SW22.5 255 0 min 0 lux 0 min 8,0 C 5,3 C
29.08.2011 05:09 9,1 C 92 % 1015 hPa 0,0 l/m 14,5 km/h (3 Bft) SW45 230 0 min 0 lux 0 min 7,9 C 4,3 C
29.08.2011 05:24 8,8 C 92 % 1015 hPa 0,0 l/m 13,3 km/h (3 Bft) W22.5 265 0 min 0 lux 0 min 7,6 C 4,5 C
29.08.2011 05:39 8,8 C 93 % 1015 hPa 0,0 l/m 19,6 km/h (3 Bft) W22.5 260 0 min 0 lux 0 min 7,7 C 1,9 C
29.08.2011 05:54 8,8 C 93 % 1015 hPa 0,0 l/m 18,5 km/h (3 Bft) W-SW22.5 255 0 min 0 lux 0 min 7,7 C 2,3 C
29.08.2011 06:09 8,8 C 93 % 1014 hPa 0,0 l/m 15,6 km/h (3 Bft) W-SW 250 0 min 0 lux 0 min 7,7 C 3,4 C
29.08.2011 06:24 8,8 C 93 % 1015 hPa 0,0 l/m 16,6 km/h (3 Bft) SW45 230 0 min 130 lux 0 min 7,7 C 3,0 C
29.08.2011 06:39 8,4 C 93 % 1015 hPa 0,0 l/m 19,0 km/h (3 Bft) SW45 230 0 min 430 lux 0 min 7,3 C 1,6 C
29.08.2011 06:54 8,4 C 93 % 1014 hPa 0,0 l/m 13,6 km/h (3 Bft) SW22.5 230 0 min 938 lux 0 min 7,3 C 3,9 C
29.08.2011 07:09 8,4 C 94 % 1015 hPa 0,0 l/m 18,0 km/h (3 Bft) W-SW45 240 0 min 2,20 klux 0 min 7,5 C 2,0 C
29.08.2011 07:24 8,6 C 94 % 1014 hPa 0,0 l/m 16,1 km/h (3 Bft) W-SW67.5 240 0 min 3,69 klux 0 min 7,7 C 3,0 C
29.08.2011 07:39 8,9 C 94 % 1015 hPa 0,0 l/m 13,8 km/h (3 Bft) W-SW45 245 0 min 4,91 klux 0 min 8,0 C 4,3 C
29.08.2011 08:01 9,1 C 94 % 1015 hPa 0,0 l/m 16,6 km/h (3 Bft) W-SW45 245 0 min 6,28 klux 0 min 8,2 C 3,4 C
29.08.2011 08:15 9,2 C 93 % 1015 hPa 0,0 l/m 14,0 km/h (3 Bft) SW45 215 0 min 6,56 klux 0 min 8,1 C 4,6 C
29.08.2011 08:30 9,6 C 93 % 1014 hPa 0,0 l/m 15,3 km/h (3 Bft) SW45 225 0 min 10,7 klux 0 min 8,5 C 4,5 C
29.08.2011 08:45 10,1 C 92 % 1014 hPa 0,0 l/m 16,5 km/h (3 Bft) SW45 220 0 min 36,0 klux 0 min 8,9 C 4,7 C
29.08.2011 09:00 10,9 C 90 % 1015 hPa 0,0 l/m 21,1 km/h (4 Bft) W-SW45 245 0 min 46,9 klux 0 min 9,3 C 4,1 C
29.08.2011 09:16 11,8 C 87 % 1015 hPa 0,0 l/m 20,8 km/h (4 Bft) W-SW45 255 0 min 32,6 klux 0 min 9,7 C 5,4 C
29.08.2011 09:31 11,7 C 85 % 1015 hPa 0,0 l/m 25,2 km/h (4 Bft) SW45 230 0 min 26,8 klux 0 min 9,3 C 4,1 C
29.08.2011 09:45 12,2 C 85 % 1015 hPa 0,0 l/m 23,1 km/h (4 Bft) W-SW45 255 0 min 55,9 klux 0 min 9,8 C 5,3 C
29.08.2011 10:00 12,5 C 84 % 1015 hPa 0,0 l/m 31,1 km/h (5 Bft) W22.5 265 0 min 30,1 klux 0 min 9,9 C 4,0 C
29.08.2011 10:15 13,5 C 83 % 1015 hPa 0,0 l/m 22,0 km/h (4 Bft) W22.5 260 15 min 80,2 klux 0 min 10,7 C 7,3 C
29.08.2011 10:30 13,6 C 81 % 1015 hPa 0,0 l/m 24,1 km/h (4 Bft) SW45 225 15 min 71,5 klux 0 min 10,4 C 6,9 C
29.08.2011 10:46 13,6 C 78 % 1015 hPa 0,0 l/m 27,2 km/h (4 Bft) W22.5 270 0 min 39,7 klux 0 min 9,8 C 6,2 C
29.08.2011 11:01 14,1 C 73 % 1015 hPa 0,0 l/m 37,8 km/h (5 Bft) W45 275 15 min 74,3 klux 0 min 9,3 C 5,2 C
29.08.2011 11:15 13,1 C 72 % 1015 hPa 0,0 l/m 31,8 km/h (5 Bft) W45 275 0 min 20,7 klux 0 min 8,2 C 4,7 C
29.08.2011 11:30 13,3 C 74 % 1015 hPa 0,0 l/m 31,2 km/h (5 Bft) W45 270 15 min 83,3 klux 0 min 8,8 C 5,1 C
29.08.2011 11:45 14,4 C 73 % 1015 hPa 0,0 l/m 31,2 km/h (5 Bft) W45 270 15 min 93,1 klux 0 min 9,6 C 6,6 C
29.08.2011 12:00 14,6 C 68 % 1015 hPa 0,0 l/m 35,7 km/h (5 Bft) W-SW45 250 15 min 81,5 klux 0 min 8,8 C 6,3 C
29.08.2011 12:16 14,2 C 67 % 1015 hPa 0,0 l/m 27,1 km/h (4 Bft) W45 275 0 min 48,9 klux 0 min 8,2 C 7,1 C
29.08.2011 12:31 14,4 C 67 % 1015 hPa 0,0 l/m 27,8 km/h (4 Bft) W67.5 270 15 min 88,3 klux 0 min 8,4 C 7,2 C
29.08.2011 12:45 15,2 C 66 % 1015 hPa 0,0 l/m 29,8 km/h (5 Bft) W45 270 14 min 105 klux 0 min 8,9 C 8,0 C
29.08.2011 13:00 15,6 C 61 % 1015 hPa 0,0 l/m 46,2 km/h (6 Bft) W45 270 15 min 98,2 klux 0 min 8,1 C 6,6 C
29.08.2011 13:15 14,3 C 62 % 1015 hPa 0,0 l/m 37,4 km/h (5 Bft) W45 260 0 min 48,9 klux 0 min 7,1 C 5,6 C
29.08.2011 13:30 14,2 C 64 % 1015 hPa 0,0 l/m 34,3 km/h (5 Bft) W22.5 270 15 min 63,6 klux 0 min 7,5 C 5,9 C
29.08.2011 13:46 15,0 C 62 % 1015 hPa 0,0 l/m 31,6 km/h (5 Bft) W45 275 16 min 62,7 klux 0 min 7,8 C 7,4 C
29.08.2011 14:01 15,0 C 63 % 1015 hPa 0,0 l/m 29,2 km/h (5 Bft) W45 270 0 min 42,5 klux 0 min 8,0 C 7,8 C
29.08.2011 14:15 15,0 C 63 % 1015 hPa 0,0 l/m 33,2 km/h (5 Bft) W45 265 14 min 72,4 klux 0 min 8,0 C 7,2 C
29.08.2011 14:30 15,2 C 58 % 1015 hPa 0,0 l/m 28,6 km/h (4 Bft) W45 270 0 min 58,5 klux 0 min 7,0 C 8,2 C
29.08.2011 14:45 14,6 C 61 % 1015 hPa 0,0 l/m 29,4 km/h (5 Bft) W22.5 260 0 min 35,0 klux 0 min 7,2 C 7,2 C
29.08.2011 15:00 14,4 C 62 % 1015 hPa 0,0 l/m 31,5 km/h (5 Bft) W67.5 270 0 min 46,0 klux 0 min 7,2 C 6,6 C
29.08.2011 15:16 13,9 C 64 % 1015 hPa 0,0 l/m 31,6 km/h (5 Bft) W45 275 0 min 26,5 klux 0 min 7,2 C 5,9 C
29.08.2011 15:31 14,5 C 66 % 1015 hPa 0,0 l/m 27,1 km/h (4 Bft) W45 275 15 min 97,3 klux 0 min 8,2 C 7,5 C
29.08.2011 15:30 14,5 C 66 % 1015 hPa 0,0 l/m 27,1 km/h (4 Bft) W45 275 -1 min 97,3 klux 0 min 8,2 C 7,5 C
29.08.2011 15:45 15,5 C 64 % 1016 hPa 0,0 l/m 26,6 km/h (4 Bft) W67.5 270 15 min 97,5 klux 0 min 8,7 C 9,0 C
29.08.2011 16:00 15,4 C 61 % 1015 hPa 0,0 l/m 31,6 km/h (5 Bft) W45 270 0 min 48,6 klux 0 min 7,9 C 8,0 C
29.08.2011 16:16 14,9 C 61 % 1015 hPa 0,0 l/m 28,7 km/h (4 Bft) W45 280 16 min 80,1 klux 0 min 7,4 C 7,8 C
29.08.2011 16:31 15,0 C 62 % 1015 hPa 0,0 l/m 26,1 km/h (4 Bft) W45 275 15 min 77,5 klux 0 min 7,8 C 8,4 C
29.08.2011 16:45 14,6 C 62 % 1015 hPa 0,0 l/m 26,8 km/h (4 Bft) W22.5 260 0 min 20,2 klux 0 min 7,4 C 7,7 C
29.08.2011 17:00 14,8 C 63 % 1015 hPa 0,0 l/m 21,5 km/h (4 Bft) W22.5 270 0 min 34,8 klux 0 min 7,8 C 9,1 C
29.08.2011 17:15 14,7 C 61 % 1016 hPa 0,0 l/m 25,0 km/h (4 Bft) W45 275 15 min 63,0 klux 0 min 7,3 C 8,2 C
29.08.2011 17:30 14,3 C 63 % 1016 hPa 0,0 l/m 19,2 km/h (3 Bft) W22.5 270 0 min 19,3 klux 0 min 7,4 C 9,1 C
29.08.2011 17:46 14,2 C 64 % 1016 hPa 0,0 l/m 26,8 km/h (4 Bft) W45 265 0 min 23,7 klux 0 min 7,5 C 7,2 C
29.08.2011 17:45 14,2 C 64 % 1016 hPa 0,0 l/m 26,8 km/h (4 Bft) W45 265 0 min 23,7 klux 0 min 7,5 C 7,2 C
29.08.2011 18:00 14,5 C 63 % 1015 hPa 0,0 l/m 23,3 km/h (4 Bft) W22.5 275 0 min 49,8 klux 0 min 7,5 C 8,3 C
29.08.2011 18:15 14,5 C 63 % 1015 hPa 0,0 l/m 19,3 km/h (3 Bft) W22.5 270 0 min 44,2 klux 0 min 7,5 C 9,3 C
29.08.2011 18:30 14,0 C 63 % 1015 hPa 0,0 l/m 29,0 km/h (5 Bft) W45 275 0 min 36,5 klux 0 min 7,1 C 6,5 C
29.08.2011 18:46 12,9 C 64 % 1015 hPa 0,0 l/m 22,0 km/h (4 Bft) W22.5 270 0 min 8,83 klux 0 min 6,3 C 6,5 C
29.08.2011 19:01 12,3 C 66 % 1016 hPa 0,0 l/m 22,8 km/h (4 Bft) W22.5 270 0 min 5,25 klux 0 min 6,1 C 5,5 C
29.08.2011 19:15 11,9 C 68 % 1016 hPa 0,0 l/m 9,8 km/h (2 Bft) W-SW 250 0 min 5,69 klux 0 min 6,2 C 9,8 C
29.08.2011 19:30 11,6 C 69 % 1015 hPa 0,0 l/m 9,4 km/h (2 Bft) W-SW 250 0 min 7,98 klux 0 min 6,1 C 9,7 C
29.08.2011 19:45 11,4 C 70 % 1015 hPa 0,0 l/m 0,9 km/h (0 Bft) W-SW 250 0 min 5,85 klux 0 min 6,1 C 11,4 C
29.08.2011 20:00 11,1 C 71 % 1015 hPa 0,0 l/m 0,0 km/h (0 Bft) W-SW 250 0 min 3,94 klux 0 min 6,0 C 11,1 C
29.08.2011 20:16 10,7 C 72 % 1015 hPa 0,0 l/m 0,1 km/h (0 Bft) W-SW 250 0 min 1,61 klux 0 min 5,9 C 10,7 C
29.08.2011 20:31 10,4 C 73 % 1016 hPa 0,0 l/m 0,0 km/h (0 Bft) W-SW 250 0 min 885 lux 0 min 5,8 C 10,4 C
29.08.2011 20:45 9,7 C 74 % 1016 hPa 0,0 l/m 0,0 km/h (0 Bft) W-SW 250 0 min 286 lux 0 min 5,3 C 9,7 C
29.08.2011 21:00 8,9 C 75 % 1016 hPa 0,0 l/m 0,0 km/h (0 Bft) W-SW 250 0 min 35 lux 0 min 4,7 C 8,9 C
29.08.2011 21:15 8,1 C 77 % 1016 hPa 0,0 l/m 0,0 km/h (0 Bft) W-SW 250 0 min 4 lux 0 min 4,3 C 8,1 C
29.08.2011 21:30 7,6 C 79 % 1016 hPa 0,0 l/m 0,0 km/h (0 Bft) W-SW 250 0 min 0 lux 0 min 4,2 C 7,6 C
29.08.2011 21:45 7,2 C 81 % 1016 hPa 0,0 l/m 0,0 km/h (0 Bft) W-SW 250 0 min 0 lux 0 min 4,2 C 7,2 C
29.08.2011 22:00 7,2 C 83 % 1016 hPa 0,0 l/m 0,0 km/h (0 Bft) W-SW 250 0 min 0 lux 0 min 4,5 C 7,2 C
29.08.2011 22:15 7,2 C 83 % 1016 hPa 0,0 l/m 0,0 km/h (0 Bft) W-SW 250 0 min 0 lux 0 min 4,5 C 7,2 C
29.08.2011 22:30 7,2 C 83 % 1016 hPa 0,0 l/m 0,0 km/h (0 Bft) W-SW 250 0 min 0 lux 0 min 4,5 C 7,2 C
29.08.2011 22:46 7,2 C 83 % 1016 hPa 0,0 l/m 0,0 km/h (0 Bft) W-SW 250 0 min 0 lux 0 min 4,5 C 7,2 C
29.08.2011 23:01 7,0 C 83 % 1016 hPa 0,0 l/m 0,0 km/h (0 Bft) W-SW 250 0 min 0 lux 0 min 4,3 C 7,0 C
29.08.2011 23:15 6,8 C 84 % 1016 hPa 0,0 l/m 0,0 km/h (0 Bft) W-SW 250 0 min 0 lux 0 min 4,3 C 6,8 C
29.08.2011 23:30 6,5 C 84 % 1016 hPa 0,0 l/m 0,0 km/h (0 Bft) W-SW 250 0 min 0 lux 0 min 4,0 C 6,5 C
29.08.2011 23:45 6,1 C 84 % 1016 hPa 0,0 l/m 0,0 km/h (0 Bft) W-SW 250 0 min 0 lux 0 min 3,6 C 6,1 C
_ Min-Zeit 23:45 14:30 06:09 - 00:54 - - - - - 23:45 06:39
Minimum _ 6,1 C 58 % 1014 hPa - 0,0 km/h (0 Bft) - - - - - 3,6 C 1,6 C
_ Max-Zeit 13:00 07:09 00:09 00:09 13:00 - - 13:46 12:45 00:09 10:15 19:45
Maximum _ 15,6 C 94 % 1016 hPa 0,0 l/m 46,2 km/h
W (6 Bft)
- - 16 min 105 klux 0 min 10,7 C 11,4 C
Durchschnitt _ 11,1 C 78 % 1015 hPa #0,0 l/m 17,1 km/h (3 Bft) W - #4:14 h 24,6 klux #0 min. 7,3 C 6,5 C